createdAt,value
2018-08-24T00:02:17.380Z,67.40
2018-08-24T00:04:50.890Z,67.40
2018-08-24T00:07:23.961Z,67.30
2018-08-24T00:09:57.265Z,67.20
2018-08-24T00:12:30.129Z,67.30
2018-08-24T00:15:03.012Z,67.00
2018-08-24T00:17:35.632Z,66.90
2018-08-24T00:20:08.264Z,66.70
2018-08-24T00:22:41.058Z,66.50
2018-08-24T00:25:13.999Z,66.30
2018-08-24T00:27:46.717Z,66.50
2018-08-24T00:30:23.753Z,66.30
2018-08-24T00:32:57.045Z,66.40
2018-08-24T00:35:29.988Z,66.10
2018-08-24T00:38:02.985Z,66.40
2018-08-24T00:40:35.841Z,66.40
2018-08-24T00:43:08.722Z,66.50
2018-08-24T00:45:41.516Z,66.60
2018-08-24T00:48:14.374Z,66.20
2018-08-24T00:50:47.160Z,66.60
2018-08-24T00:53:20.154Z,66.50
2018-08-24T00:55:52.981Z,66.40
2018-08-24T00:58:26.044Z,66.30
2018-08-24T01:01:03.581Z,66.30
2018-08-24T01:03:36.289Z,66.10
2018-08-24T01:06:09.462Z,66.00
2018-08-24T01:08:45.657Z,65.90
2018-08-24T01:11:18.438Z,65.70
2018-08-24T01:13:52.721Z,65.60
2018-08-24T01:16:30.245Z,65.50
2018-08-24T01:19:02.947Z,65.70
2018-08-24T01:21:35.865Z,65.20
2018-08-24T01:24:08.776Z,65.10
2018-08-24T01:26:41.621Z,64.90
2018-08-24T01:29:14.495Z,64.70
2018-08-24T01:31:47.621Z,64.60
2018-08-24T01:34:20.324Z,64.40
2018-08-24T01:36:52.239Z,64.30
2018-08-24T01:39:25.327Z,64.10
2018-08-24T01:41:57.908Z,64.00
2018-08-24T01:44:31.240Z,63.90
2018-08-24T01:47:04.468Z,63.80
2018-08-24T01:49:37.244Z,63.90
2018-08-24T01:52:10.335Z,63.80
2018-08-24T01:54:43.015Z,63.70
2018-08-24T01:57:16.212Z,63.70
2018-08-24T01:59:49.327Z,63.60
2018-08-24T02:02:21.315Z,63.70
2018-08-24T02:04:54.820Z,63.60
2018-08-24T02:12:38.445Z,62.70
2018-08-24T02:15:11.381Z,63.30
2018-08-24T02:17:49.243Z,63.40
2018-08-24T02:20:31.239Z,64.20
2018-08-24T02:23:09.880Z,63.60
2018-08-24T02:25:43.343Z,63.50
2018-08-24T02:28:16.549Z,63.50
2018-08-24T02:30:49.639Z,63.50
2018-08-24T02:33:22.387Z,63.60
2018-08-24T02:35:56.896Z,63.70
2018-08-24T02:38:30.239Z,63.80
2018-08-24T02:41:03.391Z,64.00
2018-08-24T02:43:36.224Z,64.00
2018-08-24T02:46:09.232Z,64.10
2018-08-24T02:48:42.196Z,64.20
2018-08-24T02:51:15.233Z,64.30
2018-08-24T02:53:47.957Z,64.50
2018-08-24T02:56:21.703Z,64.70
2018-08-24T02:58:55.444Z,64.70
2018-08-24T03:01:28.416Z,64.80
2018-08-24T03:04:01.467Z,64.90
2018-08-24T03:06:33.996Z,65.00
2018-08-24T03:09:10.678Z,65.00
2018-08-24T03:11:43.510Z,65.10
2018-08-24T03:14:16.461Z,65.10
2018-08-24T03:16:54.870Z,65.10
2018-08-24T03:19:28.058Z,65.20
2018-08-24T03:22:01.239Z,65.10
2018-08-24T03:24:34.476Z,65.20
2018-08-24T03:27:07.354Z,65.20
2018-08-24T03:29:40.322Z,65.20
2018-08-24T03:32:12.082Z,65.20
2018-08-24T03:34:45.370Z,65.10
2018-08-24T03:37:18.420Z,65.20
2018-08-24T03:39:51.540Z,65.20
2018-08-24T03:42:24.330Z,65.30
2018-08-24T03:44:57.539Z,65.20
2018-08-24T03:47:29.929Z,65.30
2018-08-24T03:50:02.640Z,65.30
2018-08-24T03:52:35.434Z,65.40
2018-08-24T03:55:08.553Z,65.80
2018-08-24T03:57:41.406Z,65.60
2018-08-24T04:00:19.752Z,65.60
2018-08-24T04:02:53.661Z,65.80
2018-08-24T04:05:27.702Z,65.60
2018-08-24T04:08:01.228Z,65.90
2018-08-24T04:10:37.522Z,66.00
2018-08-24T04:13:11.824Z,66.10
2018-08-24T04:15:45.236Z,66.10
2018-08-24T04:18:18.692Z,66.10
2018-08-24T04:20:52.227Z,66.10
2018-08-24T04:23:25.340Z,66.10
2018-08-24T04:25:59.424Z,66.30
2018-08-24T04:28:33.031Z,66.30
2018-08-24T04:31:06.241Z,66.30
2018-08-24T04:33:38.889Z,66.30
2018-08-24T04:36:11.835Z,66.30
2018-08-24T04:38:44.526Z,66.20
2018-08-24T04:41:19.483Z,66.10
2018-08-24T04:43:52.448Z,66.20
2018-08-24T04:46:25.257Z,66.20
2018-08-24T04:48:58.524Z,66.10
2018-08-24T04:51:31.642Z,66.20
2018-08-24T04:54:06.591Z,66.10
2018-08-24T04:56:39.287Z,66.10
2018-08-24T04:59:12.033Z,66.20
2018-08-24T05:01:45.001Z,66.30
2018-08-24T05:04:17.968Z,66.30
2018-08-24T05:06:50.854Z,66.30
2018-08-24T05:09:23.439Z,66.40
2018-08-24T05:11:56.832Z,66.40
2018-08-24T05:14:29.579Z,66.30
2018-08-24T05:17:02.399Z,66.50
2018-08-24T05:19:34.956Z,66.50
2018-08-24T05:22:07.941Z,66.60
2018-08-24T05:24:40.673Z,66.60
2018-08-24T05:27:13.332Z,66.70
2018-08-24T05:29:46.214Z,66.80
2018-08-24T05:32:19.320Z,66.80
2018-08-24T05:34:52.332Z,66.90
2018-08-24T05:37:25.465Z,66.90
2018-08-24T05:39:58.576Z,67.00
2018-08-24T05:42:31.483Z,67.10
2018-08-24T05:45:04.374Z,67.20
2018-08-24T05:50:54.178Z,68.90
2018-08-24T05:53:27.044Z,69.00
2018-08-24T05:56:00.480Z,68.70
2018-08-24T05:58:33.034Z,68.50
2018-08-24T06:01:05.931Z,68.40
2018-08-24T06:03:38.582Z,68.10
2018-08-24T06:06:11.299Z,68.30
2018-08-24T06:08:44.879Z,68.30
2018-08-24T06:11:17.573Z,68.40
2018-08-24T06:13:50.445Z,68.30
2018-08-24T06:16:23.334Z,68.00
2018-08-24T06:18:56.677Z,68.00
2018-08-24T06:21:29.634Z,68.10
2018-08-24T06:24:02.266Z,68.00
2018-08-24T06:26:35.250Z,68.00
2018-08-24T06:29:13.617Z,67.70
2018-08-24T06:31:46.496Z,67.80
2018-08-24T06:34:19.483Z,67.70
2018-08-24T06:36:52.422Z,67.50
2018-08-24T06:39:25.224Z,67.40
2018-08-24T06:41:58.609Z,67.70
2018-08-24T06:44:31.069Z,67.60
2018-08-24T06:47:03.889Z,67.50
2018-08-24T06:49:36.889Z,67.30
2018-08-24T06:52:09.862Z,67.30
2018-08-24T06:54:44.569Z,67.40
2018-08-24T06:57:17.562Z,67.50
2018-08-24T06:59:50.759Z,67.50
2018-08-24T07:02:24.849Z,67.70
2018-08-24T07:04:59.427Z,67.50
2018-08-24T07:07:36.429Z,68.30
2018-08-24T07:10:09.408Z,69.30
2018-08-24T07:12:42.376Z,70.50
2018-08-24T07:15:18.224Z,70.60
